Time;durP1;ratioP1;P1;durP2;ratioP2;P2;SDS_P1;SDS_P2;PMS_P1;PMS_P2;Temp;Humidity;BMP_temperature;BMP_pressure;BME280_temperature;BME280_humidity;BME280_pressure;Samples;Min_cycle;Max_cycle;Signal;HPM_P1;HPM_P2
2023/08/26 00:01:08;;;;;;;5.15;2.30;;;;;;;20.09;100.00;100489.19;6228220;28;20050;-71
2023/08/26 00:04:10;;;;;;;6.40;3.58;;;;;;;19.99;100.00;100466.06;6228340;28;20046;-70
2023/08/26 00:07:11;;;;;;;7.13;3.47;;;;;;;20.00;100.00;100469.56;6227877;28;20453;-70
2023/08/26 00:10:12;;;;;;;6.45;3.92;;;;;;;20.00;100.00;100464.25;6228124;28;20480;-70
2023/08/26 00:13:15;;;;;;;7.25;4.25;;;;;;;19.98;100.00;100467.06;6228051;28;20053;-70
2023/08/26 00:16:17;;;;;;;7.90;4.97;;;;;;;19.95;100.00;100469.19;6227792;28;20061;-70
2023/08/26 00:19:20;;;;;;;9.57;4.82;;;;;;;19.90;100.00;100469.63;6227927;28;20120;-70
2023/08/26 00:22:21;;;;;;;15.30;5.82;;;;;;;19.94;100.00;100468.34;6227786;28;20196;-71
2023/08/26 00:25:23;;;;;;;11.10;5.30;;;;;;;19.99;100.00;100468.75;6227648;28;20131;-71
2023/08/26 00:28:25;;;;;;;8.60;4.75;;;;;;;20.03;100.00;100463.94;6227648;28;20046;-71
2023/08/26 00:31:27;;;;;;;7.95;4.50;;;;;;;20.00;100.00;100465.06;6227682;28;20061;-70
2023/08/26 00:34:28;;;;;;;8.68;5.45;;;;;;;19.94;100.00;100464.81;6227261;28;20054;-71
2023/08/26 00:37:30;;;;;;;10.00;4.82;;;;;;;19.96;100.00;100460.19;6227362;28;20335;-70
2023/08/26 00:40:36;;;;;;;17.80;7.82;;;;;;;19.95;100.00;100466.53;6227460;28;20046;-71
2023/08/26 00:43:38;;;;;;;9.18;6.05;;;;;;;19.96;100.00;100454.84;6227393;28;20053;-70
2023/08/26 00:46:40;;;;;;;11.57;6.50;;;;;;;19.93;100.00;100463.16;6226887;28;20065;-71
2023/08/26 00:49:41;;;;;;;12.73;7.20;;;;;;;19.91;100.00;100465.13;6227429;28;20057;-71
2023/08/26 00:52:43;;;;;;;11.38;6.32;;;;;;;19.93;100.00;100469.31;6226948;28;20365;-71
2023/08/26 00:55:44;;;;;;;14.25;7.43;;;;;;;19.94;100.00;100463.03;6226664;28;20050;-71
2023/08/26 00:58:47;;;;;;;15.30;8.10;;;;;;;19.91;100.00;100465.97;6227039;28;20057;-71
2023/08/26 01:01:49;;;;;;;16.67;7.95;;;;;;;19.90;100.00;100468.81;6226862;28;20057;-71
2023/08/26 01:04:51;;;;;;;19.45;9.73;;;;;;;19.83;100.00;100460.53;6226580;28;20358;-71
2023/08/26 01:07:52;;;;;;;17.27;9.13;;;;;;;19.79;100.00;100459.16;6226658;28;20405;-71
2023/08/26 01:11:04;;;;;;;20.92;11.05;;;;;;;19.64;100.00;100457.97;6226885;28;20056;-71
2023/08/26 01:14:16;;;;;;;23.88;12.20;;;;;;;19.60;100.00;100449.44;6226591;28;20049;-70
2023/08/26 01:17:19;;;;;;;24.13;11.27;;;;;;;19.62;100.00;100455.47;6226328;28;20442;-70
2023/08/26 01:20:21;;;;;;;25.35;11.60;;;;;;;19.65;100.00;100459.66;6226552;28;20461;-70
2023/08/26 01:23:34;;;;;;;21.10;11.07;;;;;;;19.65;100.00;100457.81;6226672;28;20054;-71
2023/08/26 01:26:36;;;;;;;26.90;13.35;;;;;;;19.57;100.00;100448.84;6226158;28;20438;-71
2023/08/26 01:29:37;;;;;;;26.45;13.32;;;;;;;19.52;100.00;100450.13;6226282;28;20324;-71
2023/08/26 01:32:42;;;;;;;31.33;12.52;;;;;;;19.54;100.00;100450.00;6226347;28;20053;-71
2023/08/26 01:35:46;;;;;;;23.08;12.30;;;;;;;19.58;100.00;100456.72;6226176;28;20065;-70
2023/08/26 01:38:50;;;;;;;24.48;12.13;;;;;;;19.63;100.00;100459.81;6226206;28;20053;-70
2023/08/26 01:41:52;;;;;;;24.98;11.52;;;;;;;19.64;100.00;100461.47;6226507;28;20438;-70
2023/08/26 01:44:54;;;;;;;23.48;11.43;;;;;;;19.66;100.00;100456.81;6225822;28;20370;-70
2023/08/26 01:47:55;;;;;;;23.90;12.07;;;;;;;19.62;100.00;100452.81;6226392;28;20053;-70
2023/08/26 01:50:56;;;;;;;22.02;11.45;;;;;;;19.61;100.00;100452.94;6226095;28;20058;-71
2023/08/26 01:53:59;;;;;;;26.85;11.98;;;;;;;19.57;100.00;100449.69;6225597;28;20050;-70
2023/08/26 01:57:01;;;;;;;29.20;13.80;;;;;;;19.52;100.00;100460.78;6225344;28;20053;-71
2023/08/26 02:00:02;;;;;;;25.60;13.27;;;;;;;19.43;100.00;100468.81;6225651;28;20046;-70
2023/08/26 02:03:04;;;;;;;28.08;13.65;;;;;;;19.45;100.00;100467.69;6226010;28;20465;-70
2023/08/26 02:06:05;;;;;;;26.83;13.85;;;;;;;19.39;100.00;100470.94;6226742;28;20054;-70
2023/08/26 02:09:08;;;;;;;25.83;13.27;;;;;;;19.43;100.00;100471.47;6230987;28;20346;-70
2023/08/26 02:12:10;;;;;;;31.27;13.45;;;;;;;19.41;100.00;100478.81;6230932;28;20057;-70
2023/08/26 02:15:11;;;;;;;28.73;13.60;;;;;;;19.38;100.00;100476.41;6230425;28;20176;-70
2023/08/26 02:18:13;;;;;;;27.05;13.82;;;;;;;19.37;100.00;100470.25;6230872;28;20046;-70
2023/08/26 02:21:14;;;;;;;29.55;12.68;;;;;;;19.34;100.00;100470.53;6230678;28;20049;-70
2023/08/26 02:24:17;;;;;;;25.63;13.05;;;;;;;19.40;100.00;100464.63;6230634;28;20389;-70
2023/08/26 02:27:18;;;;;;;25.02;12.27;;;;;;;19.44;100.00;100467.81;6230272;28;20061;-70
2023/08/26 02:30:20;;;;;;;26.73;12.43;;;;;;;19.46;100.00;100468.53;6230565;28;20049;-70
2023/08/26 02:33:22;;;;;;;27.75;15.00;;;;;;;19.31;100.00;100454.84;6230477;28;20069;-70
2023/08/26 02:36:24;;;;;;;27.75;14.93;;;;;;;19.22;100.00;100464.56;6230237;28;20081;-70
2023/08/26 02:39:26;;;;;;;25.60;13.60;;;;;;;19.26;100.00;100454.44;6230204;28;20354;-70
2023/08/26 02:42:29;;;;;;;30.25;14.70;;;;;;;19.28;100.00;100452.47;6230356;28;20050;-70
2023/08/26 02:45:31;;;;;;;25.75;14.57;;;;;;;19.32;100.00;100455.69;6229777;28;20049;-70
2023/08/26 02:48:33;;;;;;;32.80;16.70;;;;;;;19.18;100.00;100451.66;6230311;28;20057;-69
2023/08/26 02:51:34;;;;;;;32.30;15.93;;;;;;;19.06;100.00;100447.47;6230171;28;20058;-70
2023/08/26 02:54:37;;;;;;;33.28;16.70;;;;;;;19.12;100.00;100441.56;6229687;28;20061;-69
2023/08/26 02:57:39;;;;;;;33.45;17.00;;;;;;;18.92;100.00;100452.28;6229680;28;20054;-70
2023/08/26 03:00:41;;;;;;;29.85;15.45;;;;;;;18.97;100.00;100466.00;6229724;28;20057;-70
2023/08/26 03:03:42;;;;;;;33.78;14.10;;;;;;;19.07;100.00;100465.13;6229895;28;20427;-69
2023/08/26 03:06:44;;;;;;;37.00;15.73;;;;;;;19.05;100.00;100467.94;6229364;28;20058;-71
2023/08/26 03:09:46;;;;;;;33.55;15.10;;;;;;;19.10;100.00;100470.19;6229841;28;20050;-70
2023/08/26 03:12:48;;;;;;;28.92;13.82;;;;;;;19.15;100.00;100463.44;6229560;28;20046;-70
2023/08/26 03:15:49;;;;;;;31.75;16.25;;;;;;;19.13;100.00;100472.56;6229328;28;20061;-71
2023/08/26 03:18:50;;;;;;;29.02;14.20;;;;;;;19.14;100.00;100469.75;6229273;28;20049;-70
2023/08/26 03:21:52;;;;;;;28.75;14.23;;;;;;;19.17;100.00;100472.13;6229384;28;20045;-70
2023/08/26 03:24:54;;;;;;;25.83;13.55;;;;;;;19.06;100.00;100466.97;6229179;28;20060;-68
2023/08/26 03:27:56;;;;;;;30.55;15.20;;;;;;;19.04;100.00;100470.78;6228998;28;20458;-69
2023/08/26 03:31:04;;;;;;;32.30;16.85;;;;;;;18.97;100.00;100470.47;6229241;28;20060;-68
2023/08/26 03:34:06;;;;;;;33.53;16.30;;;;;;;18.90;100.00;100483.53;6229001;28;20045;-68
2023/08/26 03:37:07;;;;;;;32.67;15.65;;;;;;;18.92;100.00;100488.72;6228708;28;20598;-69
2023/08/26 03:40:11;;;;;;;33.40;15.25;;;;;;;19.00;100.00;100481.69;6228796;28;20434;-69
2023/08/26 03:43:13;;;;;;;32.47;15.50;;;;;;;18.81;100.00;100484.41;6229032;28;20049;-68
2023/08/26 03:46:14;;;;;;;31.70;15.63;;;;;;;18.89;100.00;100483.66;6228472;28;20054;-68
2023/08/26 03:49:15;;;;;;;31.27;15.32;;;;;;;18.79;100.00;100491.66;6228865;28;20041;-69
2023/08/26 03:52:17;;;;;;;32.03;15.52;;;;;;;18.77;100.00;100484.81;6228553;28;20109;-68
2023/08/26 03:55:20;;;;;;;32.95;16.85;;;;;;;18.79;100.00;100494.31;6227626;28;20061;-69
2023/08/26 03:58:21;;;;;;;30.92;14.75;;;;;;;18.77;100.00;100500.78;6228357;28;20054;-69
2023/08/26 04:01:23;;;;;;;31.23;15.07;;;;;;;18.74;100.00;100507.22;6228420;28;20046;-68
2023/08/26 04:04:25;;;;;;;32.70;16.40;;;;;;;18.72;100.00;100510.03;6228334;28;20049;-69
2023/08/26 04:07:26;;;;;;;29.25;15.48;;;;;;;18.67;100.00;100508.75;6228085;28;20465;-68
2023/08/26 04:10:29;;;;;;;35.08;15.80;;;;;;;18.67;100.00;100512.25;6228394;28;20046;-68
2023/08/26 04:13:30;;;;;;;29.40;15.60;;;;;;;18.64;100.00;100514.34;6228151;28;20058;-68
2023/08/26 04:16:32;;;;;;;29.98;15.30;;;;;;;18.52;100.00;100511.78;6227863;28;20050;-68
2023/08/26 04:19:33;;;;;;;34.35;16.55;;;;;;;18.57;100.00;100510.53;6227943;28;20046;-68
2023/08/26 04:22:35;;;;;;;27.75;13.93;;;;;;;18.61;100.00;100518.09;6228106;28;20053;-69
2023/08/26 04:25:38;;;;;;;29.58;14.20;;;;;;;18.53;100.00;100525.97;6227562;28;20052;-69
2023/08/26 04:28:40;;;;;;;30.55;13.77;;;;;;;18.50;100.00;100527.06;6227436;28;20046;-69
2023/08/26 04:31:41;;;;;;;29.83;14.75;;;;;;;18.47;100.00;100523.84;6227746;28;20573;-69
2023/08/26 04:34:42;;;;;;;28.45;14.20;;;;;;;18.52;100.00;100521.59;6227343;28;20045;-69
2023/08/26 04:37:44;;;;;;;36.03;15.63;;;;;;;18.52;100.00;100525.09;6227667;28;20054;-69
2023/08/26 04:40:47;;;;;;;27.48;13.50;;;;;;;18.61;100.00;100517.28;6227353;28;20057;-70
2023/08/26 04:43:49;;;;;;;25.73;14.38;;;;;;;18.65;100.00;100530.16;6227481;28;20054;-69
2023/08/26 04:46:53;;;;;;;31.63;14.73;;;;;;;18.56;100.00;100528.34;6227012;28;20050;-69
2023/08/26 04:49:54;;;;;;;29.45;13.77;;;;;;;18.44;100.00;100537.41;6227289;28;20064;-69
2023/08/26 04:52:55;;;;;;;26.83;13.30;;;;;;;18.42;100.00;100534.06;6226819;28;20054;-68
2023/08/26 04:55:58;;;;;;;28.08;14.10;;;;;;;18.38;100.00;100543.28;6226559;28;20054;-69
2023/08/26 04:58:59;;;;;;;25.67;14.52;;;;;;;18.33;100.00;100549.03;6226502;28;20045;-69
2023/08/26 05:02:01;;;;;;;28.23;14.02;;;;;;;18.39;100.00;100545.81;6227263;28;20054;-69
2023/08/26 05:05:02;;;;;;;31.38;14.00;;;;;;;18.37;100.00;100541.63;6226126;28;20045;-69
2023/08/26 05:08:04;;;;;;;23.85;13.45;;;;;;;18.38;100.00;100544.13;6226757;28;20350;-69
2023/08/26 05:11:07;;;;;;;23.70;13.35;;;;;;;18.23;100.00;100548.16;6226054;28;20052;-69
2023/08/26 05:14:08;;;;;;;24.80;12.70;;;;;;;18.26;100.00;100542.59;6226032;28;20054;-68
2023/08/26 05:17:10;;;;;;;23.70;11.88;;;;;;;18.36;100.00;100540.78;6226111;28;20053;-68
2023/08/26 05:20:12;;;;;;;21.23;11.85;;;;;;;18.28;100.00;100556.56;6226130;28;20046;-68
2023/08/26 05:23:14;;;;;;;23.95;12.25;;;;;;;18.25;100.00;100556.84;6226701;28;20050;-69
2023/08/26 05:26:16;;;;;;;25.30;12.00;;;;;;;18.31;100.00;100563.47;6226140;28;20094;-69
2023/08/26 05:29:18;;;;;;;24.65;12.98;;;;;;;18.30;100.00;100567.06;6226375;28;20453;-69
2023/08/26 05:32:19;;;;;;;25.52;12.35;;;;;;;18.34;100.00;100556.03;6226268;28;20073;-69
2023/08/26 05:35:20;;;;;;;21.38;10.38;;;;;;;18.48;100.00;100565.44;6225886;28;20458;-69
2023/08/26 05:38:22;;;;;;;25.17;12.85;;;;;;;18.41;100.00;100564.31;6226341;28;20054;-69
2023/08/26 05:41:25;;;;;;;26.60;12.70;;;;;;;18.37;100.00;100563.75;6225512;28;20057;-68
2023/08/26 05:44:26;;;;;;;26.95;12.25;;;;;;;18.35;100.00;100575.47;6226043;28;20050;-68
2023/08/26 05:47:27;;;;;;;23.67;11.32;;;;;;;18.40;100.00;100576.78;6225984;28;20054;-68
2023/08/26 05:50:29;;;;;;;26.88;12.30;;;;;;;18.30;100.00;100577.72;6226210;28;20054;-69
2023/08/26 05:53:30;;;;;;;22.30;11.50;;;;;;;18.28;100.00;100577.84;6225973;28;20056;-67
2023/08/26 05:56:33;;;;;;;22.73;11.23;;;;;;;18.34;100.00;100573.81;6224875;28;20065;-67
2023/08/26 05:59:34;;;;;;;24.67;11.65;;;;;;;18.39;100.00;100591.03;6225756;28;20057;-67
2023/08/26 06:02:36;;;;;;;21.13;10.30;;;;;;;18.45;100.00;100573.72;6226139;28;20053;-70
2023/08/26 06:05:37;;;;;;;16.85;10.00;;;;;;;18.50;100.00;100574.97;6225579;28;20468;-69
2023/08/26 06:08:39;;;;;;;22.25;10.68;;;;;;;18.44;100.00;100572.00;6226023;28;20057;-69
2023/08/26 06:11:41;;;;;;;16.80;9.80;;;;;;;18.39;100.00;100567.09;6225924;28;20053;-70
2023/08/26 06:14:43;;;;;;;20.88;10.02;;;;;;;18.41;100.00;100580.28;6225360;28;20053;-66
2023/08/26 06:17:44;;;;;;;17.40;8.35;;;;;;;18.51;100.00;100573.16;6225359;28;20042;-69
2023/08/26 06:20:45;;;;;;;20.80;10.82;;;;;;;18.46;100.00;100560.25;6225150;28;20046;-69
2023/08/26 06:23:47;;;;;;;17.42;9.15;;;;;;;18.57;100.00;100561.94;6225340;28;20042;-69
2023/08/26 06:26:50;;;;;;;19.27;9.13;;;;;;;18.41;100.00;100559.84;6224797;28;20350;-70
2023/08/26 06:29:52;;;;;;;17.88;9.32;;;;;;;18.51;100.00;100565.16;6222984;28;20038;-67
2023/08/26 06:32:54;;;;;;;24.00;9.88;;;;;;;18.61;100.00;100576.66;6225091;28;20068;-70
2023/08/26 06:35:55;;;;;;;16.83;8.90;;;;;;;18.64;100.00;100579.06;6224928;28;20046;-69
2023/08/26 06:38:57;;;;;;;22.17;11.27;;;;;;;18.73;100.00;100580.94;6225307;28;20347;-71
2023/08/26 06:41:59;;;;;;;23.58;11.68;;;;;;;18.45;100.00;100613.63;6225852;28;20050;-71
2023/08/26 06:45:01;;;;;;;14.48;8.00;;;;;;;17.91;100.00;100615.66;6225420;28;20082;-71
2023/08/26 06:48:02;;;;;;;10.30;5.55;;;;;;;17.47;100.00;100617.59;6225354;28;20060;-71
2023/08/26 06:51:04;;;;;;;10.23;5.28;;;;;;;17.27;100.00;100617.59;6225617;28;20038;-71
2023/08/26 06:54:06;;;;;;;10.60;5.63;;;;;;;16.90;100.00;100631.25;6229816;28;20446;-71
2023/08/26 06:57:08;;;;;;;11.45;6.63;;;;;;;16.71;100.00;100638.03;6229645;28;20135;-73
2023/08/26 07:00:13;;;;;;;12.82;7.00;;;;;;;16.75;100.00;100635.97;6229755;28;20046;-70
2023/08/26 07:03:14;;;;;;;12.82;7.72;;;;;;;16.62;100.00;100635.25;6229220;28;20064;-70
2023/08/26 07:06:16;;;;;;;13.95;8.15;;;;;;;16.64;100.00;100641.28;6228982;28;20050;-73
2023/08/26 07:09:17;;;;;;;20.95;9.68;;;;;;;16.64;100.00;100643.94;6229702;28;20054;-73
2023/08/26 07:12:20;;;;;;;16.83;9.30;;;;;;;16.64;100.00;100650.09;6229519;28;20053;-73
2023/08/26 07:15:21;;;;;;;21.52;11.05;;;;;;;16.69;100.00;100650.56;6229363;28;20056;-73
2023/08/26 07:18:23;;;;;;;25.27;11.30;;;;;;;16.60;100.00;100653.94;6229362;28;20340;-72
2023/08/26 07:21:25;;;;;;;17.50;9.98;;;;;;;16.66;100.00;100661.41;6229183;28;20061;-72
2023/08/26 07:24:26;;;;;;;24.02;10.73;;;;;;;16.50;100.00;100663.63;6229283;28;20057;-74
2023/08/26 07:27:29;;;;;;;18.85;10.73;;;;;;;16.54;100.00;100664.22;6229084;28;20050;-73
2023/08/26 07:30:31;;;;;;;22.55;7.93;;;;;;;16.53;100.00;100673.97;6229154;28;20354;-72
2023/08/26 07:33:33;;;;;;;13.60;7.22;;;;;;;16.53;100.00;100670.47;6229096;28;20061;-72
2023/08/26 07:36:35;;;;;;;13.23;7.18;;;;;;;16.47;100.00;100677.13;6228784;28;20057;-73
2023/08/26 07:39:36;;;;;;;11.32;5.90;;;;;;;16.48;100.00;100676.97;6228797;28;20050;-73
2023/08/26 07:42:39;;;;;;;10.00;5.57;;;;;;;16.50;100.00;100679.53;6228463;28;20435;-73
2023/08/26 07:45:40;;;;;;;9.65;4.65;;;;;;;16.39;100.00;100680.38;6227872;28;20073;-73
2023/08/26 07:48:42;;;;;;;9.23;4.63;;;;;;;16.38;100.00;100686.63;6228668;28;20053;-74
2023/08/26 07:51:43;;;;;;;8.60;3.20;;;;;;;16.44;100.00;100690.59;6228631;28;20045;-73
2023/08/26 07:54:44;;;;;;;6.75;3.80;;;;;;;16.44;100.00;100698.56;6228331;28;20050;-73
2023/08/26 07:57:47;;;;;;;7.03;3.72;;;;;;;16.47;100.00;100706.28;6228342;28;20069;-73
2023/08/26 08:00:49;;;;;;;7.50;3.47;;;;;;;16.58;100.00;100706.31;6228306;28;20050;-73
2023/08/26 08:03:50;;;;;;;4.10;3.10;;;;;;;16.65;100.00;100696.88;6227392;28;20362;-73
2023/08/26 08:06:51;;;;;;;7.45;3.03;;;;;;;16.61;100.00;100710.50;6227964;28;20061;-73
2023/08/26 08:09:54;;;;;;;8.18;2.38;;;;;;;16.66;100.00;100727.75;6228356;28;20049;-73
2023/08/26 08:12:57;;;;;;;5.72;2.20;;;;;;;16.69;100.00;100718.72;6228206;28;20137;-73
2023/08/26 08:15:58;;;;;;;5.20;2.80;;;;;;;16.77;100.00;100715.50;6227968;28;20058;-73
2023/08/26 08:19:00;;;;;;;5.75;2.85;;;;;;;16.70;100.00;100737.16;6228032;28;20049;-74
2023/08/26 08:22:01;;;;;;;5.13;2.13;;;;;;;16.71;100.00;100717.63;6227696;28;20049;-74
2023/08/26 08:25:03;;;;;;;3.40;2.28;;;;;;;16.69;100.00;100724.84;6226382;28;20050;-73
2023/08/26 08:28:07;;;;;;;3.80;2.25;;;;;;;16.68;100.00;100717.88;6227121;28;20053;-73
2023/08/26 08:31:08;;;;;;;5.65;2.17;;;;;;;16.83;100.00;100717.63;6226808;28;20072;-72
2023/08/26 08:34:09;;;;;;;7.18;2.40;;;;;;;16.90;100.00;100725.00;6227076;28;20056;-72
2023/08/26 08:37:11;;;;;;;7.40;2.47;;;;;;;16.81;100.00;100717.78;6227221;28;20045;-73
2023/08/26 08:40:13;;;;;;;5.25;2.15;;;;;;;16.88;100.00;100721.59;6227116;28;20050;-72
2023/08/26 08:43:17;;;;;;;14.63;2.35;;;;;;;16.99;100.00;100718.13;6225820;28;20149;-72
2023/08/26 08:46:19;;;;;;;5.05;1.58;;;;;;;17.03;100.00;100722.19;6226785;28;20057;-72
2023/08/26 08:49:21;;;;;;;6.35;1.90;;;;;;;17.07;100.00;100723.63;6227304;28;20046;-71
2023/08/26 08:52:25;;;;;;;2.22;1.80;;;;;;;17.04;100.00;100723.88;6227117;28;20054;-72
2023/08/26 08:55:26;;;;;;;10.63;2.15;;;;;;;16.95;100.00;100724.63;6222914;28;20061;-72
2023/08/26 08:58:31;;;;;;;7.40;1.70;;;;;;;16.99;100.00;100720.75;6221291;28;20343;-71
2023/08/26 09:01:32;;;;;;;5.47;1.58;;;;;;;17.12;100.00;100733.88;6222927;28;20045;-72
2023/08/26 09:04:34;;;;;;;3.20;1.30;;;;;;;17.20;100.00;100726.13;6226176;28;20098;-76
2023/08/26 09:07:35;;;;;;;8.48;1.40;;;;;;;17.19;100.00;100735.91;6231037;28;20054;-70
2023/08/26 09:10:37;;;;;;;1.67;1.13;;;;;;;17.32;100.00;100741.06;6229185;28;20046;-71
2023/08/26 09:13:40;;;;;;;6.68;1.73;;;;;;;17.32;100.00;100730.44;6225551;28;20065;-70
2023/08/26 09:16:43;;;;;;;4.38;1.02;;;;;;;17.40;100.00;100741.31;6226369;28;20430;-70
2023/08/26 09:19:55;;;;;;;1.73;1.00;;;;;;;17.47;100.00;100737.16;6226140;28;20453;-71
2023/08/26 09:23:04;;;;;;;4.45;1.08;;;;;;;17.48;100.00;100744.16;6225295;28;20053;-70
2023/08/26 09:26:05;;;;;;;2.85;1.00;;;;;;;17.38;100.00;100745.03;6226288;28;20058;-70
2023/08/26 09:29:17;;;;;;;2.10;0.90;;;;;;;17.39;100.00;100747.56;6226493;28;20374;-70
2023/08/26 09:32:31;;;;;;;6.57;1.00;;;;;;;17.40;100.00;100751.94;6226453;28;20046;-71
2023/08/26 09:35:33;;;;;;;4.07;1.00;;;;;;;17.60;100.00;100742.31;6226307;28;20314;-70
2023/08/26 09:38:44;;;;;;;6.97;1.10;;;;;;;17.57;100.00;100747.84;6226330;28;20045;-69
2023/08/26 09:41:47;;;;;;;4.47;1.00;;;;;;;17.63;100.00;100757.16;6227081;28;20049;-68
2023/08/26 09:44:50;;;;;;;3.58;1.33;;;;;;;17.77;100.00;100766.69;6226063;28;20092;-69
2023/08/26 09:47:55;;;;;;;4.35;1.27;;;;;;;17.66;100.00;100770.19;6223641;28;20049;-70
2023/08/26 09:50:56;;;;;;;2.80;1.92;;;;;;;17.54;100.00;100774.72;6221767;28;20042;-75
2023/08/26 09:53:59;;;;;;;5.43;1.10;;;;;;;17.49;100.00;100783.06;6222320;28;20405;-69
2023/08/26 09:57:01;;;;;;;3.90;1.05;;;;;;;17.48;100.00;100784.00;6223326;28;20046;-71
2023/08/26 10:00:04;;;;;;;2.22;1.00;;;;;;;17.49;100.00;100784.88;6222591;28;20042;-69
2023/08/26 10:03:08;;;;;;;4.40;1.15;;;;;;;17.48;100.00;100791.97;6225603;28;20045;-69
2023/08/26 10:06:13;;;;;;;2.30;0.75;;;;;;;17.48;100.00;100788.47;6224283;28;20050;-70
2023/08/26 10:09:25;;;;;;;3.42;0.90;;;;;;;17.54;100.00;100785.34;6230981;28;20057;-71
2023/08/26 10:12:31;;;;;;;3.83;0.90;;;;;;;17.57;100.00;100786.88;6224567;28;20049;-71
2023/08/26 10:15:34;;;;;;;0.70;0.60;;;;;;;17.67;100.00;100775.38;6221598;28;20053;-71
2023/08/26 10:18:44;;;;;;;3.35;1.05;;;;;;;17.74;100.00;100784.56;6216470;28;20056;-71
2023/08/26 10:21:46;;;;;;;3.15;0.70;;;;;;;17.91;100.00;100784.97;6217289;28;20121;-70
2023/08/26 10:24:47;;;;;;;2.05;0.65;;;;;;;17.99;100.00;100783.38;6224743;28;20454;-71
2023/08/26 10:27:49;;;;;;;6.00;0.80;;;;;;;18.14;100.00;100781.22;6225610;28;20042;-71
2023/08/26 10:30:54;;;;;;;6.63;1.73;;;;;;;18.12;100.00;100792.94;6230359;28;20046;-71
2023/08/26 10:34:00;;;;;;;1.50;0.70;;;;;;;18.15;100.00;100788.22;6230294;28;20354;-70
2023/08/26 10:37:04;;;;;;;6.40;0.75;;;;;;;18.22;100.00;100777.94;6230045;28;20442;-71
2023/08/26 10:40:06;;;;;;;2.50;0.80;;;;;;;18.40;100.00;100789.66;6230023;28;20354;-71
2023/08/26 10:43:09;;;;;;;0.80;0.70;;;;;;;18.46;100.00;100798.94;6236429;28;20053;-70
2023/08/26 10:46:12;;;;;;;1.20;0.63;;;;;;;18.46;100.00;100797.09;6254478;28;20060;-70
2023/08/26 10:49:13;;;;;;;3.58;0.93;;;;;;;18.53;100.00;100792.13;6254493;28;20343;-69
2023/08/26 10:52:17;;;;;;;6.65;0.90;;;;;;;18.60;100.00;100792.41;6254771;28;20057;-70
2023/08/26 10:55:22;;;;;;;3.35;0.60;;;;;;;18.68;100.00;100793.44;6254014;28;20084;-69
2023/08/26 10:58:42;;;;;;;3.22;0.77;;;;;;;18.73;100.00;100785.94;6254681;28;20046;-70
2023/08/26 11:01:46;;;;;;;1.05;0.52;;;;;;;18.76;100.00;100795.47;6254226;28;20042;-76
2023/08/26 11:04:48;;;;;;;1.98;0.80;;;;;;;18.83;100.00;100793.13;6254017;28;20445;-70
2023/08/26 11:07:49;;;;;;;2.58;0.80;;;;;;;18.92;100.00;100781.66;6254036;28;20076;-71
2023/08/26 11:10:52;;;;;;;1.38;1.02;;;;;;;19.00;100.00;100792.47;6218930;28;20046;-70
2023/08/26 11:13:53;;;;;;;2.13;0.80;;;;;;;18.97;100.00;100780.25;6229188;28;20049;-70
2023/08/26 11:16:56;;;;;;;1.38;0.80;;;;;;;19.07;100.00;100772.28;6228803;28;20046;-69
2023/08/26 11:19:57;;;;;;;0.90;0.60;;;;;;;19.27;100.00;100779.38;6228438;28;20072;-72
2023/08/26 11:22:59;;;;;;;4.93;0.95;;;;;;;19.35;100.00;100786.69;6217558;28;20051;-72
2023/08/26 11:26:00;;;;;;;2.45;0.85;;;;;;;19.50;100.00;100790.63;6227829;28;20065;-72
2023/08/26 11:29:02;;;;;;;2.83;0.60;;;;;;;19.44;100.00;100795.66;6223257;28;20056;-71
2023/08/26 11:32:07;;;;;;;2.28;0.85;;;;;;;19.42;100.00;100790.47;6227117;28;20053;-71
2023/08/26 11:35:10;;;;;;;0.82;0.50;;;;;;;19.52;100.00;100803.81;6228421;28;20454;-74
2023/08/26 11:38:12;;;;;;;1.42;0.60;;;;;;;19.59;100.00;100799.63;6227614;28;20049;-73
2023/08/26 11:41:13;;;;;;;3.28;1.08;;;;;;;19.73;100.00;100799.25;6226909;28;20042;-81
2023/08/26 11:44:15;;;;;;;1.00;0.70;;;;;;;19.81;100.00;100803.88;6227011;28;20050;-72
2023/08/26 11:47:18;;;;;;;2.47;0.50;;;;;;;19.89;100.00;100803.16;6228383;28;20045;-73
2023/08/26 11:50:20;;;;;;;2.45;0.90;;;;;;;19.87;100.00;100802.47;6228686;28;20050;-76
2023/08/26 11:53:23;;;;;;;1.83;0.80;;;;;;;19.80;100.00;100802.19;6228493;28;20066;-73
2023/08/26 11:56:24;;;;;;;4.53;0.80;;;;;;;19.66;100.00;100799.94;6227749;28;20069;-71
2023/08/26 11:59:26;;;;;;;1.23;0.52;;;;;;;19.71;100.00;100808.34;6228558;28;20074;-73
2023/08/26 12:02:29;;;;;;;1.95;0.70;;;;;;;19.63;100.00;100805.56;6228383;28;20155;-74
2023/08/26 12:05:42;;;;;;;2.63;0.60;;;;;;;19.49;100.00;100817.44;6267571;22;20045;-72
2023/08/26 12:08:44;;;;;;;4.57;0.80;;;;;;;19.33;100.00;100822.44;6277772;28;20052;-72
2023/08/26 12:11:46;;;;;;;1.80;0.77;;;;;;;19.29;100.00;100819.19;6277969;28;20044;-73
2023/08/26 12:14:47;;;;;;;2.08;0.88;;;;;;;19.24;100.00;100826.75;6277187;28;20045;-73
2023/08/26 12:17:55;;;;;;;2.40;0.85;;;;;;;19.27;100.00;100826.50;6277379;28;20056;-72
2023/08/26 12:20:56;;;;;;;1.40;0.75;;;;;;;19.22;100.00;100828.72;6277168;28;20376;-73
2023/08/26 12:23:59;;;;;;;2.97;0.80;;;;;;;19.20;100.00;100820.00;6277179;28;20052;-73
2023/08/26 12:27:07;;;;;;;2.00;0.68;;;;;;;19.23;100.00;100823.25;6272496;28;20417;-71
2023/08/26 12:30:10;;;;;;;1.70;0.70;;;;;;;19.19;100.00;100826.31;6276767;28;20437;-71
2023/08/26 12:33:14;;;;;;;2.65;0.95;;;;;;;19.22;100.00;100824.25;6287507;28;20052;-71
2023/08/26 12:36:15;;;;;;;2.92;1.20;;;;;;;19.29;100.00;100824.53;6291183;28;20052;-72
2023/08/26 12:39:16;;;;;;;4.28;0.85;;;;;;;19.84;100.00;100814.25;6286673;28;20560;-72
2023/08/26 12:42:18;;;;;;;4.13;0.80;;;;;;;20.42;100.00;100808.03;6301462;28;20052;-71
2023/08/26 12:45:19;;;;;;;0.73;0.68;;;;;;;20.42;100.00;100814.22;6275183;28;20064;-73
2023/08/26 12:48:22;;;;;;;2.00;0.60;;;;;;;20.24;100.00;100807.91;6278530;28;20447;-72
2023/08/26 12:51:24;;;;;;;2.83;0.88;;;;;;;20.48;100.00;100811.00;6293683;28;20115;-72
2023/08/26 12:54:25;;;;;;;5.15;0.82;;;;;;;20.91;100.00;100817.59;6299241;28;20055;-73
2023/08/26 12:57:26;;;;;;;2.85;0.77;;;;;;;21.27;100.00;100823.06;6300062;28;20055;-73
2023/08/26 13:00:28;;;;;;;1.48;0.82;;;;;;;21.49;100.00;100809.31;6300478;28;20045;-72
2023/08/26 13:03:31;;;;;;;0.80;0.77;;;;;;;21.64;100.00;100808.78;6300724;28;20049;-72
2023/08/26 13:06:32;;;;;;;1.83;0.93;;;;;;;21.74;100.00;100809.53;6300721;28;20055;-72
2023/08/26 13:09:34;;;;;;;1.35;0.80;;;;;;;21.81;100.00;100802.59;6300954;28;20048;-73
2023/08/26 13:12:35;;;;;;;1.95;0.77;;;;;;;21.79;100.00;100796.53;6301078;28;20056;-72
2023/08/26 13:15:38;;;;;;;1.63;0.80;;;;;;;21.80;100.00;100803.56;6300356;28;20437;-72
2023/08/26 13:18:42;;;;;;;1.60;0.70;;;;;;;21.93;100.00;100804.03;6300987;28;20051;-73
2023/08/26 13:21:44;;;;;;;3.58;0.93;;;;;;;22.07;100.00;100799.13;6300636;28;20048;-71
2023/08/26 13:24:45;;;;;;;5.32;1.58;;;;;;;21.84;100.00;100798.75;6300290;28;20349;-72
2023/08/26 13:27:48;;;;;;;0.60;0.40;;;;;;;22.03;100.00;100801.28;6300664;28;20053;-73
2023/08/26 13:30:49;;;;;;;2.30;0.60;;;;;;;22.08;100.00;100803.50;6300567;28;20048;-72
2023/08/26 13:33:52;;;;;;;1.05;0.65;;;;;;;21.62;100.00;100797.38;6300626;28;20059;-71
2023/08/26 13:36:53;;;;;;;3.22;1.02;;;;;;;21.67;100.00;100800.47;6300119;28;20354;-71
2023/08/26 13:39:55;;;;;;;2.15;0.70;;;;;;;21.85;99.18;100809.34;6300555;28;20056;-74
2023/08/26 13:42:56;;;;;;;1.35;0.75;;;;;;;22.18;88.32;100805.13;6300173;28;20048;-73
2023/08/26 13:45:58;;;;;;;2.45;0.60;;;;;;;22.43;66.57;100795.41;6300162;28;20054;-72
2023/08/26 13:49:01;;;;;;;2.05;0.82;;;;;;;22.52;61.88;100804.31;6300300;28;20048;-73